createdAt,value
2022-08-05T00:02:11.385Z,20.50
2022-08-05T00:04:40.294Z,20.60
2022-08-05T00:07:58.710Z,20.50
2022-08-05T00:09:54.582Z,20.60
2022-08-05T00:12:21.485Z,20.60
2022-08-05T00:14:51.749Z,20.70
2022-08-05T00:17:28.679Z,20.60
2022-08-05T00:20:02.585Z,20.60
2022-08-05T00:22:29.897Z,20.50
2022-08-05T00:24:58.129Z,20.50
2022-08-05T00:27:28.646Z,20.60
2022-08-05T00:30:04.739Z,20.50
2022-08-05T00:32:31.543Z,20.60
2022-08-05T00:35:06.311Z,20.60
2022-08-05T00:37:51.267Z,20.60
2022-08-05T00:40:26.862Z,20.60
2022-08-05T00:42:56.671Z,20.60
2022-08-05T00:45:38.144Z,20.30
2022-08-05T00:48:06.898Z,20.30
2022-08-05T00:50:33.928Z,20.40
2022-08-05T00:53:01.012Z,20.20
2022-08-05T00:55:42.298Z,22.10
2022-08-05T00:58:11.590Z,19.90
2022-08-05T01:00:40.791Z,19.70
2022-08-05T01:03:10.604Z,19.70
2022-08-05T01:05:49.920Z,19.60
2022-08-05T01:08:43.183Z,19.70
2022-08-05T01:11:22.687Z,19.70
2022-08-05T01:13:59.586Z,19.70
2022-08-05T01:16:33.722Z,19.80
2022-08-05T01:19:12.166Z,19.80
2022-08-05T01:21:54.858Z,19.50
2022-08-05T01:24:44.909Z,19.20
2022-08-05T01:27:25.554Z,19.30
2022-08-05T01:29:59.704Z,19.30
2022-08-05T01:32:31.885Z,19.40
2022-08-05T01:35:03.344Z,19.50
2022-08-05T01:37:44.253Z,19.70
2022-08-05T01:40:12.628Z,19.70
2022-08-05T01:42:41.092Z,19.70
2022-08-05T01:45:10.683Z,19.70
2022-08-05T01:47:43.437Z,19.60
2022-08-05T01:50:14.290Z,19.70
2022-08-05T01:52:44.191Z,19.70
2022-08-05T01:55:13.362Z,19.70
2022-08-05T01:58:10.549Z,19.80
2022-08-05T02:00:33.494Z,20.30
2022-08-05T02:03:04.128Z,19.70
2022-08-05T02:05:34.520Z,19.70
2022-08-05T02:08:04.119Z,19.80
2022-08-05T02:10:36.038Z,19.70
2022-08-05T02:13:15.835Z,19.80
2022-08-05T02:15:50.263Z,19.80
2022-08-05T02:18:31.906Z,19.70
2022-08-05T02:21:06.475Z,19.60
2022-08-05T02:23:45.044Z,19.30
2022-08-05T02:26:17.161Z,19.30
2022-08-05T02:28:46.257Z,19.30
2022-08-05T02:31:21.209Z,19.30
2022-08-05T02:33:57.726Z,19.20
2022-08-05T02:36:27.498Z,19.30
2022-08-05T02:39:00.533Z,19.10
2022-08-05T02:41:43.430Z,19.10
2022-08-05T02:44:16.897Z,19.00
2022-08-05T02:46:58.995Z,18.80
2022-08-05T02:49:37.143Z,18.70
2022-08-05T02:52:07.943Z,18.70
2022-08-05T02:54:42.142Z,18.70
2022-08-05T02:58:19.634Z,18.50
2022-08-05T02:59:59.911Z,20.10
2022-08-05T03:02:34.502Z,20.10
2022-08-05T03:05:01.865Z,18.50
2022-08-05T03:08:01.930Z,18.50
2022-08-05T03:10:24.433Z,18.50
2022-08-05T03:12:52.052Z,18.60
2022-08-05T03:15:20.723Z,18.60
2022-08-05T03:17:48.930Z,18.70
2022-08-05T03:20:21.368Z,18.80
2022-08-05T03:22:50.694Z,18.90
2022-08-05T03:26:03.730Z,18.90
2022-08-05T03:28:08.459Z,19.00
2022-08-05T03:30:36.700Z,18.90
2022-08-05T03:33:07.340Z,18.90
2022-08-05T03:35:41.686Z,18.80
2022-08-05T03:38:11.217Z,18.60
2022-08-05T03:40:40.908Z,18.60
2022-08-05T03:43:58.531Z,18.50
2022-08-05T03:45:57.884Z,18.40
2022-08-05T03:48:27.508Z,18.30
2022-08-05T03:52:37.589Z,18.40
2022-08-05T03:55:53.358Z,18.50
2022-08-05T03:56:42.103Z,18.40
2022-08-05T03:59:15.117Z,18.20
2022-08-05T04:01:49.727Z,18.20
2022-08-05T04:04:21.525Z,18.10
2022-08-05T04:06:51.095Z,18.20
2022-08-05T04:09:20.182Z,18.30
2022-08-05T04:11:53.904Z,18.30
2022-08-05T04:14:30.296Z,18.80
2022-08-05T04:16:58.881Z,18.40
2022-08-05T04:19:27.980Z,18.30
2022-08-05T04:22:09.812Z,18.20
2022-08-05T04:27:06.881Z,18.40
2022-08-05T04:29:34.390Z,18.30
2022-08-05T04:32:01.421Z,18.30
2022-08-05T04:34:32.792Z,18.30
2022-08-05T04:39:30.159Z,18.20
2022-08-05T04:41:57.128Z,18.20
2022-08-05T04:44:29.312Z,18.20
2022-08-05T04:46:57.147Z,18.20
2022-08-05T04:50:01.515Z,18.20
2022-08-05T04:52:13.435Z,18.20
2022-08-05T04:54:40.549Z,18.30
2022-08-05T04:57:07.319Z,18.30
2022-08-05T04:59:39.214Z,18.30
2022-08-05T05:02:36.795Z,18.40
2022-08-05T05:05:01.736Z,18.40
2022-08-05T05:07:32.673Z,18.50
2022-08-05T05:10:05.301Z,18.60
2022-08-05T05:12:33.376Z,18.40
2022-08-05T05:15:03.752Z,18.40
2022-08-05T05:17:56.778Z,18.40
2022-08-05T05:20:28.676Z,18.40
2022-08-05T05:22:57.069Z,18.20
2022-08-05T05:25:40.340Z,18.00
2022-08-05T05:28:07.770Z,18.00
2022-08-05T05:30:36.212Z,18.20
2022-08-05T05:33:15.969Z,18.20
2022-08-05T05:35:45.126Z,18.20
2022-08-05T05:38:14.381Z,18.20
2022-08-05T05:40:46.631Z,18.00
2022-08-05T05:43:16.375Z,18.10
2022-08-05T05:45:54.630Z,18.00
2022-08-05T05:48:27.382Z,18.00
2022-08-05T05:50:54.733Z,18.00
2022-08-05T05:53:23.058Z,17.90
2022-08-05T05:55:52.531Z,18.00
2022-08-05T05:58:31.792Z,18.00
2022-08-05T06:01:12.220Z,19.40
2022-08-05T06:04:01.794Z,18.30
2022-08-05T06:06:27.975Z,18.40
2022-08-05T06:08:59.863Z,18.50
2022-08-05T06:11:26.645Z,18.60
2022-08-05T06:13:55.983Z,18.70
2022-08-05T06:16:28.661Z,18.60
2022-08-05T06:18:59.907Z,18.50
2022-08-05T06:21:35.742Z,18.50
2022-08-05T06:24:07.757Z,18.40
2022-08-05T06:26:39.333Z,18.40
2022-08-05T06:29:23.617Z,18.30
2022-08-05T06:31:52.958Z,18.30
2022-08-05T06:34:20.371Z,18.20
2022-08-05T06:36:57.533Z,17.20
2022-08-05T06:39:27.993Z,18.20
2022-08-05T06:41:56.108Z,18.20
2022-08-05T06:44:25.996Z,17.90
2022-08-05T06:46:54.409Z,18.00
2022-08-05T06:49:59.814Z,18.00
2022-08-05T06:52:08.116Z,17.90
2022-08-05T06:54:56.128Z,18.00
2022-08-05T06:58:03.811Z,18.00
2022-08-05T07:00:10.949Z,17.90
2022-08-05T07:02:42.463Z,17.90
2022-08-05T07:05:18.478Z,18.00
2022-08-05T07:07:48.902Z,18.00
2022-08-05T07:10:17.014Z,18.00
2022-08-05T07:13:02.575Z,18.20
2022-08-05T07:16:01.088Z,18.20
2022-08-05T07:18:30.410Z,18.30
2022-08-05T07:20:57.717Z,18.20
2022-08-05T07:23:26.250Z,18.30
2022-08-05T07:25:57.768Z,18.30
2022-08-05T07:28:25.249Z,18.40
2022-08-05T07:30:55.202Z,18.30
2022-08-05T07:33:36.587Z,18.20
2022-08-05T07:36:20.642Z,18.10
2022-08-05T07:38:49.043Z,18.30
2022-08-05T07:42:13.898Z,18.30
2022-08-05T07:44:14.531Z,18.30
2022-08-05T07:46:48.411Z,18.20
2022-08-05T07:49:15.935Z,18.30
2022-08-05T07:51:53.389Z,18.20
2022-08-05T07:54:30.704Z,18.20
2022-08-05T07:57:22.754Z,18.00
2022-08-05T07:59:49.893Z,18.00
2022-08-05T08:02:17.799Z,18.10
2022-08-05T08:04:47.071Z,18.30
2022-08-05T08:07:15.202Z,18.30
2022-08-05T08:09:42.739Z,18.40
2022-08-05T08:12:35.310Z,18.40
2022-08-05T08:15:02.231Z,18.30
2022-08-05T08:17:30.370Z,18.20
2022-08-05T08:20:21.051Z,18.20
2022-08-05T08:22:44.194Z,18.10
2022-08-05T08:25:16.450Z,18.00
2022-08-05T08:27:51.105Z,18.20
2022-08-05T08:30:32.851Z,18.20
2022-08-05T08:33:08.497Z,18.20
2022-08-05T08:35:40.887Z,18.30
2022-08-05T08:38:08.481Z,18.30
2022-08-05T08:40:39.137Z,18.30
2022-08-05T08:45:16.332Z,18.30
2022-08-05T08:45:56.433Z,18.40
2022-08-05T08:49:04.149Z,18.50
2022-08-05T08:52:01.937Z,18.50
2022-08-05T08:53:58.518Z,18.60
2022-08-05T08:56:27.706Z,18.60
2022-08-05T08:58:59.191Z,18.90
2022-08-05T09:01:27.973Z,18.90
2022-08-05T09:03:57.541Z,19.00
2022-08-05T09:06:28.059Z,19.10
2022-08-05T09:08:58.733Z,19.20
2022-08-05T09:11:53.194Z,19.10
2022-08-05T09:14:56.617Z,19.00
2022-08-05T09:17:01.049Z,19.10
2022-08-05T09:19:36.850Z,18.90
2022-08-05T09:22:23.298Z,19.00
2022-08-05T09:24:59.391Z,18.80
2022-08-05T09:28:05.387Z,18.80
2022-08-05T09:30:23.230Z,18.80
2022-08-05T09:32:51.574Z,18.60
2022-08-05T09:35:26.641Z,18.80
2022-08-05T09:38:12.983Z,18.30
2022-08-05T09:40:52.720Z,18.00
2022-08-05T09:43:41.421Z,17.80
2022-08-05T09:46:27.657Z,17.60
2022-08-05T09:49:08.147Z,17.50
2022-08-05T09:51:43.366Z,17.50
2022-08-05T09:54:11.333Z,17.60
2022-08-05T09:56:39.338Z,17.50
2022-08-05T09:59:08.579Z,17.70
2022-08-05T10:01:40.286Z,17.80
2022-08-05T10:04:16.063Z,17.80
2022-08-05T10:06:59.658Z,17.90
2022-08-05T10:09:29.601Z,17.90
2022-08-05T10:12:30.414Z,18.00
2022-08-05T10:15:17.111Z,17.90
2022-08-05T10:18:10.088Z,17.80
2022-08-05T10:20:41.799Z,17.90
2022-08-05T10:23:34.168Z,18.00
2022-08-05T10:32:48.282Z,17.60
2022-08-05T10:34:07.973Z,17.50
2022-08-05T10:36:36.793Z,17.50
2022-08-05T10:39:11.554Z,17.50
2022-08-05T10:41:47.773Z,17.50
2022-08-05T10:44:18.223Z,17.50
2022-08-05T10:46:51.162Z,17.50
2022-08-05T10:49:27.143Z,17.60
2022-08-05T10:52:00.694Z,17.70
2022-08-05T10:54:56.865Z,17.70
2022-08-05T10:57:31.033Z,17.80
2022-08-05T11:00:17.977Z,17.70
2022-08-05T11:03:23.585Z,17.70
2022-08-05T11:06:05.904Z,17.70
2022-08-05T11:08:38.067Z,17.80
2022-08-05T11:11:52.935Z,17.80
2022-08-05T11:15:11.622Z,17.70
2022-08-05T11:17:59.100Z,17.70
2022-08-05T11:20:43.894Z,17.60
2022-08-05T11:24:05.500Z,17.70
2022-08-05T11:26:37.966Z,17.80
2022-08-05T11:29:12.757Z,18.00
2022-08-05T11:31:54.334Z,18.00
2022-08-05T11:34:51.764Z,18.20
2022-08-05T11:38:37.398Z,18.20
2022-08-05T11:41:15.497Z,18.20
2022-08-05T11:44:06.655Z,18.20
2022-08-05T11:46:36.373Z,19.30
2022-08-05T11:49:05.238Z,18.30
2022-08-05T11:51:44.302Z,18.30
2022-08-05T11:54:33.831Z,18.50
2022-08-05T11:57:08.723Z,18.50
2022-08-05T11:59:51.701Z,18.50
2022-08-05T12:02:31.838Z,18.50
2022-08-05T12:05:01.293Z,18.50
2022-08-05T12:08:10.541Z,18.50
2022-08-05T12:10:43.387Z,18.60
2022-08-05T12:13:17.228Z,18.90
2022-08-05T12:15:49.684Z,19.10
2022-08-05T12:18:18.131Z,19.20
2022-08-05T12:20:47.485Z,19.10
2022-08-05T12:23:14.675Z,19.10
2022-08-05T12:25:53.386Z,19.30
2022-08-05T12:28:36.727Z,19.30
2022-08-05T12:31:04.660Z,19.30
2022-08-05T12:33:37.105Z,19.30
2022-08-05T12:36:09.368Z,19.40
2022-08-05T12:38:39.630Z,19.60
2022-08-05T12:41:13.170Z,20.80
2022-08-05T12:43:53.775Z,19.60
2022-08-05T12:46:28.868Z,19.90
2022-08-05T12:49:00.559Z,20.00
2022-08-05T12:52:13.116Z,20.00
2022-08-05T12:54:23.511Z,20.10
2022-08-05T12:56:52.535Z,20.20
2022-08-05T12:59:27.641Z,21.70
2022-08-05T13:02:10.663Z,20.90
2022-08-05T13:04:41.891Z,20.70
2022-08-05T13:07:55.021Z,20.50
2022-08-05T13:10:11.713Z,20.60
2022-08-05T13:12:50.671Z,20.60
2022-08-05T13:15:42.185Z,20.70
2022-08-05T13:18:18.795Z,20.70
2022-08-05T13:20:47.182Z,20.60
2022-08-05T13:23:16.391Z,20.60
2022-08-05T13:25:51.981Z,20.80
2022-08-05T13:28:26.145Z,20.90
2022-08-05T13:30:54.430Z,20.80
2022-08-05T13:34:22.109Z,20.80
2022-08-05T13:36:09.121Z,20.90
2022-08-05T13:38:38.455Z,21.20
2022-08-05T13:41:09.977Z,21.20
2022-08-05T13:43:45.652Z,21.60
2022-08-05T13:46:37.690Z,21.50
2022-08-05T13:49:11.675Z,21.40
2022-08-05T13:51:41.775Z,22.00
2022-08-05T13:54:15.375Z,22.10
2022-08-05T13:56:45.434Z,21.70
2022-08-05T13:59:21.104Z,21.60
2022-08-05T14:01:56.585Z,21.70
2022-08-05T14:04:50.171Z,21.80
2022-08-05T14:07:26.282Z,23.20
2022-08-05T14:10:08.414Z,21.50
2022-08-05T14:12:36.371Z,21.50
2022-08-05T14:16:03.982Z,21.20
2022-08-05T14:17:51.703Z,21.10
2022-08-05T14:20:27.429Z,21.60
2022-08-05T14:22:54.430Z,21.00
2022-08-05T14:25:22.500Z,20.90
2022-08-05T14:27:54.818Z,21.00
2022-08-05T14:30:22.219Z,21.20
2022-08-05T14:32:53.715Z,21.30
2022-08-05T14:35:22.838Z,21.40
2022-08-05T14:37:53.572Z,21.40
2022-08-05T14:40:24.383Z,21.80
2022-08-05T14:42:52.037Z,22.10
2022-08-05T14:45:18.880Z,22.20
2022-08-05T14:48:05.188Z,22.50
2022-08-05T14:50:36.140Z,22.60
2022-08-05T14:53:07.996Z,22.80
2022-08-05T14:55:39.008Z,22.70
2022-08-05T14:58:11.307Z,23.20
2022-08-05T15:03:27.307Z,23.90
2022-08-05T15:06:13.088Z,24.30
2022-08-05T15:08:59.233Z,23.30
2022-08-05T15:11:52.674Z,22.80
2022-08-05T15:14:33.572Z,22.40
2022-08-05T15:17:04.253Z,22.20
2022-08-05T15:19:31.508Z,22.10
2022-08-05T15:22:01.286Z,21.90
2022-08-05T15:24:28.802Z,21.80
2022-08-05T15:26:55.976Z,21.90
2022-08-05T15:29:30.316Z,21.90
2022-08-05T15:31:57.444Z,21.80
2022-08-05T15:34:32.180Z,21.90
2022-08-05T15:37:06.187Z,22.30
2022-08-05T15:40:58.916Z,22.40
2022-08-05T15:42:53.549Z,22.40
2022-08-05T15:45:11.271Z,22.40
2022-08-05T15:47:38.216Z,22.60
2022-08-05T15:50:07.280Z,22.40
2022-08-05T15:52:53.556Z,22.10
2022-08-05T15:55:25.045Z,21.90
2022-08-05T15:58:09.055Z,21.90
2022-08-05T16:00:50.721Z,21.60
2022-08-05T16:03:22.677Z,21.80
2022-08-05T16:05:52.576Z,21.80
2022-08-05T16:08:20.948Z,21.90
2022-08-05T16:10:50.883Z,22.80
2022-08-05T16:13:23.741Z,22.00
2022-08-05T16:15:51.882Z,21.80
2022-08-05T16:18:18.953Z,22.50
2022-08-05T16:20:46.589Z,21.90
2022-08-05T16:23:13.450Z,22.10
2022-08-05T16:25:41.586Z,22.20
2022-08-05T16:28:09.773Z,22.00
2022-08-05T16:33:05.757Z,21.80
2022-08-05T16:35:41.964Z,21.80
2022-08-05T16:38:16.871Z,21.60
2022-08-05T16:40:59.760Z,21.60
2022-08-05T16:43:30.331Z,21.40
2022-08-05T16:46:03.613Z,21.30
2022-08-05T16:48:35.920Z,21.20
2022-08-05T16:51:03.817Z,21.20
2022-08-05T16:54:05.766Z,21.10
2022-08-05T16:56:24.573Z,21.10
2022-08-05T16:58:51.586Z,21.00
2022-08-05T17:01:18.736Z,21.00
2022-08-05T17:03:46.007Z,21.00
2022-08-05T17:06:13.282Z,21.00
2022-08-05T17:08:53.582Z,20.90
2022-08-05T17:11:25.503Z,20.80
2022-08-05T17:14:00.629Z,20.90
2022-08-05T17:16:36.582Z,20.70
2022-08-05T17:19:07.775Z,20.70
2022-08-05T17:21:37.755Z,20.70
2022-08-05T17:24:19.757Z,20.50
2022-08-05T17:26:57.845Z,20.40
2022-08-05T17:29:33.749Z,21.00
2022-08-05T17:32:08.422Z,20.30
2022-08-05T17:34:38.537Z,20.20
2022-08-05T17:37:27.336Z,21.90
2022-08-05T17:39:55.205Z,20.30
2022-08-05T17:42:29.924Z,20.30
2022-08-05T17:44:59.457Z,20.30
2022-08-05T17:47:27.086Z,20.30
2022-08-05T17:50:03.882Z,20.30
2022-08-05T17:52:31.541Z,20.10
2022-08-05T17:54:58.346Z,19.90
2022-08-05T17:57:27.820Z,19.80
2022-08-05T18:00:03.367Z,19.70
2022-08-05T18:02:32.551Z,19.70
2022-08-05T18:05:02.773Z,19.60
2022-08-05T18:07:32.744Z,19.50
2022-08-05T18:10:10.385Z,19.60
2022-08-05T18:12:39.156Z,19.50
2022-08-05T18:15:08.842Z,19.50
2022-08-05T18:18:01.553Z,19.50
2022-08-05T18:20:29.534Z,19.40
2022-08-05T18:23:04.890Z,19.40
2022-08-05T18:25:39.034Z,19.20
2022-08-05T18:28:09.294Z,19.00
2022-08-05T18:30:40.179Z,18.90
2022-08-05T18:33:08.489Z,18.80
2022-08-05T18:36:01.086Z,18.90
2022-08-05T18:38:28.395Z,18.70
2022-08-05T18:41:54.320Z,18.60
2022-08-05T18:43:48.776Z,18.60
2022-08-05T18:46:19.719Z,18.60
2022-08-05T18:48:47.877Z,18.50
2022-08-05T18:52:03.255Z,18.40
2022-08-05T18:54:25.124Z,18.40
2022-08-05T18:56:52.188Z,18.30
2022-08-05T18:59:43.619Z,18.10
2022-08-05T19:02:11.337Z,18.10
2022-08-05T19:05:02.847Z,18.00
2022-08-05T19:07:45.140Z,18.00
2022-08-05T19:10:13.430Z,17.90
2022-08-05T19:12:40.513Z,17.80
2022-08-05T19:15:25.041Z,17.80
2022-08-05T19:18:08.633Z,17.90
2022-08-05T19:20:41.091Z,17.90
2022-08-05T19:23:08.765Z,17.90
2022-08-05T19:26:01.974Z,18.70
2022-08-05T19:28:30.030Z,17.70
2022-08-05T19:30:58.596Z,17.70
2022-08-05T19:33:35.642Z,17.70
2022-08-05T19:36:06.610Z,17.60
2022-08-05T19:38:33.992Z,17.50
2022-08-05T19:41:02.838Z,17.50
2022-08-05T19:44:05.940Z,17.50
2022-08-05T19:46:29.215Z,17.40
2022-08-05T19:48:57.508Z,17.40
2022-08-05T19:51:56.447Z,17.30
2022-08-05T19:54:22.811Z,17.30
2022-08-05T19:56:57.846Z,17.20
2022-08-05T19:59:54.800Z,17.10
2022-08-05T20:02:14.297Z,17.00
2022-08-05T20:04:43.208Z,17.00
2022-08-05T20:07:13.225Z,16.80
2022-08-05T20:09:54.102Z,16.70
2022-08-05T20:12:22.277Z,16.50
2022-08-05T20:14:52.298Z,16.50
2022-08-05T20:17:23.555Z,16.50
2022-08-05T20:19:50.797Z,16.30
2022-08-05T20:22:24.170Z,16.20
2022-08-05T20:24:53.785Z,16.10
2022-08-05T20:27:21.072Z,16.10
2022-08-05T20:29:58.236Z,16.00
2022-08-05T20:32:27.824Z,15.90
2022-08-05T20:34:55.035Z,15.90
2022-08-05T20:38:04.559Z,15.80
2022-08-05T20:40:10.257Z,15.70
2022-08-05T20:42:37.767Z,15.60
2022-08-05T20:45:07.539Z,15.40
2022-08-05T20:47:37.407Z,15.40
2022-08-05T20:50:08.801Z,15.40
2022-08-05T20:52:39.160Z,15.40
2022-08-05T20:55:55.269Z,15.50
2022-08-05T20:57:57.144Z,15.50
2022-08-05T21:00:51.861Z,15.70
2022-08-05T21:03:12.337Z,15.30
2022-08-05T21:05:54.078Z,15.00
2022-08-05T21:08:26.572Z,15.00
2022-08-05T21:11:00.166Z,14.80
2022-08-05T21:13:47.896Z,14.60
2022-08-05T21:16:19.164Z,14.70
2022-08-05T21:18:47.323Z,14.80
2022-08-05T21:21:14.677Z,14.90
2022-08-05T21:23:42.535Z,14.80
2022-08-05T21:26:14.450Z,14.90
2022-08-05T21:28:47.661Z,14.90
2022-08-05T21:31:14.901Z,14.90
2022-08-05T21:33:43.590Z,14.90
2022-08-05T21:36:19.208Z,14.80
2022-08-05T21:38:57.039Z,14.70
2022-08-05T21:41:25.971Z,14.70
2022-08-05T21:44:01.829Z,14.70
2022-08-05T21:46:31.725Z,14.60
2022-08-05T21:49:01.128Z,14.60
2022-08-05T21:52:22.580Z,14.70
2022-08-05T21:54:16.132Z,15.00
2022-08-05T21:57:15.126Z,14.60
2022-08-05T22:00:02.047Z,14.60
2022-08-05T22:02:28.037Z,14.60
2022-08-05T22:04:58.133Z,14.30
2022-08-05T22:07:40.521Z,14.30
2022-08-05T22:10:15.095Z,14.30
2022-08-05T22:12:44.795Z,14.20
2022-08-05T22:15:16.502Z,14.20
2022-08-05T22:18:01.473Z,14.30
2022-08-05T22:20:28.299Z,14.10
2022-08-05T22:23:17.228Z,14.20
2022-08-05T22:26:09.566Z,15.00
2022-08-05T22:28:37.794Z,14.20
2022-08-05T22:31:06.270Z,14.00
2022-08-05T22:33:58.343Z,13.90
2022-08-05T22:36:23.762Z,13.90
2022-08-05T22:38:53.678Z,13.90
2022-08-05T22:42:05.481Z,13.80
2022-08-05T22:44:08.847Z,13.70
2022-08-05T22:46:40.139Z,13.80
2022-08-05T22:49:08.069Z,13.70
2022-08-05T22:52:06.135Z,13.80
2022-08-05T22:54:36.384Z,13.80
2022-08-05T22:57:03.970Z,13.80
2022-08-05T22:59:46.500Z,13.80
2022-08-05T23:02:17.666Z,13.80
2022-08-05T23:04:51.086Z,13.60
2022-08-05T23:07:18.788Z,13.80
2022-08-05T23:09:53.482Z,13.60
2022-08-05T23:12:32.559Z,13.30
2022-08-05T23:15:01.379Z,13.10
2022-08-05T23:17:34.092Z,13.00
2022-08-05T23:20:16.820Z,13.00
2022-08-05T23:22:47.781Z,13.00
2022-08-05T23:25:52.859Z,13.00
2022-08-05T23:28:07.114Z,13.00
2022-08-05T23:33:21.950Z,12.90
2022-08-05T23:35:56.177Z,12.80
2022-08-05T23:38:24.257Z,12.80
2022-08-05T23:40:53.099Z,12.70
2022-08-05T23:43:24.371Z,12.70
2022-08-05T23:46:03.724Z,12.70
2022-08-05T23:48:30.613Z,13.20
2022-08-05T23:50:58.578Z,12.70
2022-08-05T23:53:28.546Z,12.80
2022-08-05T23:56:13.863Z,12.80
2022-08-05T23:58:47.097Z,12.80
